Time;durP1;ratioP1;P1;durP2;ratioP2;P2;SDS_P1;SDS_P2;PMS_P1;PMS_P2;Temp;Humidity;BMP_temperature;BMP_pressure;BME280_temperature;BME280_humidity;BME280_pressure;Samples;Min_cycle;Max_cycle;Signal;HPM_P1;HPM_P2
2023/01/09 03:49:58;;;;;;;18.77;14.68;;;;;;;4.90;100.00;99126.09;5009408;28;20060;-65
2023/01/09 05:23:19;;;;;;;21.05;16.60;;;;;;;5.29;100.00;99062.00;5001329;28;20615;-64
2023/01/09 06:27:12;;;;;;;19.20;14.93;;;;;;;5.49;100.00;99017.25;5011414;28;20548;-64
2023/01/09 06:29:39;;;;;;;23.90;16.65;;;;;;;5.51;100.00;99020.59;5006695;28;20136;-64
2023/01/09 06:41:50;;;;;;;19.52;15.85;;;;;;;5.56;100.00;99013.28;5006833;28;20621;-64
2023/01/09 06:57:37;;;;;;;26.10;16.75;;;;;;;5.64;100.00;99006.75;5012587;28;20049;-63
2023/01/09 07:00:05;;;;;;;25.00;17.42;;;;;;;5.63;100.00;99005.91;5012146;28;20104;-64
2023/01/09 07:02:38;;;;;;;26.55;18.27;;;;;;;5.64;100.00;98998.94;5003960;28;20108;-65
2023/01/09 07:05:10;;;;;;;26.73;18.88;;;;;;;5.64;100.00;99004.16;5008624;28;20078;-64
2023/01/09 07:07:38;;;;;;;26.02;18.50;;;;;;;5.63;100.00;99002.44;5003281;28;20057;-64
2023/01/09 07:10:07;;;;;;;26.63;18.08;;;;;;;5.64;100.00;98994.53;5009488;28;20085;-64
2023/01/09 07:12:34;;;;;;;24.48;19.20;;;;;;;5.63;100.00;98998.09;5011004;28;20049;-64
2023/01/09 07:15:02;;;;;;;25.65;18.52;;;;;;;5.67;100.00;98990.88;5007861;28;20045;-63
2023/01/09 07:17:29;;;;;;;28.20;18.17;;;;;;;5.67;100.00;98994.31;4992990;28;20449;-64
2023/01/09 07:19:56;;;;;;;23.45;18.05;;;;;;;5.68;100.00;98992.56;5007588;28;20092;-64
2023/01/09 07:22:23;;;;;;;21.58;16.45;;;;;;;5.71;100.00;98989.75;5009469;28;20061;-64
2023/01/09 07:24:51;;;;;;;22.75;16.48;;;;;;;5.71;100.00;98987.13;5011548;28;20053;-62
2023/01/09 07:27:18;;;;;;;25.50;18.15;;;;;;;5.67;100.00;98991.72;5011699;28;20049;-63
2023/01/09 07:29:45;;;;;;;24.13;17.25;;;;;;;5.67;100.00;98986.50;5006936;28;20096;-64
2023/01/09 07:32:13;;;;;;;23.88;17.23;;;;;;;5.69;100.00;98991.63;5006362;28;20153;-63
2023/01/09 07:34:40;;;;;;;23.27;17.77;;;;;;;5.68;100.00;99000.41;5008492;28;20132;-63
2023/01/09 07:37:07;;;;;;;24.75;16.23;;;;;;;5.69;100.00;99002.91;5010996;28;21060;-64
2023/01/09 07:39:34;;;;;;;21.30;15.15;;;;;;;5.70;100.00;99007.19;5011266;28;20141;-64
2023/01/09 07:42:01;;;;;;;22.73;16.25;;;;;;;5.70;100.00;99014.19;5005051;28;20388;-64
2023/01/09 07:44:28;;;;;;;20.75;16.25;;;;;;;5.70;100.00;99011.56;5008673;28;20417;-64
2023/01/09 07:46:55;;;;;;;20.33;15.55;;;;;;;5.70;100.00;99006.34;5004358;28;21171;-64
2023/01/09 07:49:23;;;;;;;22.38;14.98;;;;;;;5.75;100.00;99009.50;5006856;28;20053;-64
2023/01/09 07:51:53;;;;;;;23.45;16.45;;;;;;;5.72;100.00;99005.34;5006187;28;20157;-64
2023/01/09 07:54:21;;;;;;;21.00;16.13;;;;;;;5.69;100.00;99010.75;5004326;28;20457;-64
2023/01/09 07:56:48;;;;;;;21.92;15.93;;;;;;;5.67;100.00;99009.16;5004330;28;20054;-64
2023/01/09 07:59:15;;;;;;;22.05;15.95;;;;;;;5.70;100.00;99007.19;5008586;28;20060;-64
2023/01/09 08:01:42;;;;;;;25.02;16.42;;;;;;;5.72;100.00;99014.91;5001414;28;20128;-63
2023/01/09 08:04:10;;;;;;;25.52;16.70;;;;;;;5.77;100.00;99012.88;5009876;28;20081;-64
2023/01/09 08:06:37;;;;;;;20.02;15.15;;;;;;;5.77;100.00;99018.91;5009489;28;20454;-59
2023/01/09 08:09:04;;;;;;;27.15;16.70;;;;;;;5.76;100.00;99025.09;5003080;28;20057;-63
2023/01/09 08:11:31;;;;;;;24.85;16.70;;;;;;;5.77;100.00;99028.53;5005385;28;20685;-63
2023/01/09 08:13:58;;;;;;;24.67;16.58;;;;;;;5.76;100.00;99021.59;5004838;28;22052;-64
2023/01/09 08:16:26;;;;;;;23.50;16.77;;;;;;;5.80;100.00;99028.31;5002241;28;20046;-64
2023/01/09 08:18:53;;;;;;;22.23;16.35;;;;;;;5.80;100.00;99021.31;5006562;28;20050;-64
2023/01/09 08:21:20;;;;;;;25.05;17.15;;;;;;;5.83;100.00;99028.13;5010823;28;20485;-62
2023/01/09 08:23:47;;;;;;;23.67;15.93;;;;;;;5.84;100.00;99025.41;5009340;28;20053;-62
2023/01/09 08:26:14;;;;;;;23.98;16.65;;;;;;;5.86;100.00;99027.09;5010032;28;20149;-63
2023/01/09 08:28:41;;;;;;;23.08;16.60;;;;;;;5.89;100.00;99027.72;5007921;28;20057;-63
2023/01/09 08:31:09;;;;;;;23.90;16.17;;;;;;;5.88;100.00;99025.22;5008398;28;20057;-63
2023/01/09 08:33:36;;;;;;;19.70;14.68;;;;;;;5.90;100.00;99016.34;5007386;28;20133;-62
2023/01/09 08:36:06;;;;;;;22.52;15.00;;;;;;;5.93;100.00;99028.38;5005789;28;20088;-63
2023/01/09 08:38:33;;;;;;;23.38;15.35;;;;;;;5.93;100.00;99021.38;4996027;28;20171;-62
2023/01/09 08:47:04;;;;;;;21.13;14.60;;;;;;;5.98;100.00;99026.31;5007390;28;20276;-63
2023/01/09 08:49:19;;;;;;;22.95;15.77;;;;;;;5.99;100.00;99036.69;4995418;28;20540;-62
2023/01/09 08:51:46;;;;;;;21.05;13.82;;;;;;;6.00;100.00;99030.50;5006440;28;20072;-62
2023/01/09 08:54:14;;;;;;;23.25;15.13;;;;;;;6.00;100.00;99054.00;5001936;28;20068;-62
2023/01/09 08:56:41;;;;;;;18.90;14.77;;;;;;;6.00;100.00;99037.50;5007674;28;20537;-62
2023/01/09 08:59:09;;;;;;;20.13;14.80;;;;;;;6.04;100.00;99049.44;5007173;28;20315;-62
2023/01/09 09:01:36;;;;;;;26.55;15.88;;;;;;;6.03;100.00;99056.44;5005337;28;20562;-62
2023/01/09 09:04:04;;;;;;;22.48;15.27;;;;;;;6.02;100.00;99054.75;5006086;28;20084;-62
2023/01/09 09:06:32;;;;;;;22.25;16.02;;;;;;;6.05;100.00;99051.09;5006330;28;20045;-62
2023/01/09 09:09:02;;;;;;;24.10;15.60;;;;;;;6.06;100.00;99047.53;5006593;28;20112;-62
2023/01/09 09:11:29;;;;;;;19.20;14.35;;;;;;;6.09;100.00;99049.97;5005304;28;20046;-62
2023/01/09 09:13:57;;;;;;;25.52;15.27;;;;;;;6.10;100.00;99059.47;4992483;28;20059;-63
2023/01/09 09:16:25;;;;;;;24.15;14.73;;;;;;;6.15;100.00;99062.63;5007115;28;20144;-63
2023/01/09 09:18:53;;;;;;;21.50;13.65;;;;;;;6.15;100.00;99049.56;5007156;28;21602;-63
2023/01/09 09:21:20;;;;;;;20.13;15.82;;;;;;;6.15;100.00;99049.56;5004485;28;20144;-63
2023/01/09 09:23:47;;;;;;;22.75;14.57;;;;;;;6.09;100.00;99042.97;5005839;28;20056;-62
2023/01/09 09:26:14;;;;;;;25.50;15.70;;;;;;;6.13;100.00;99048.00;5007060;28;20068;-62
2023/01/09 09:28:41;;;;;;;19.83;14.70;;;;;;;6.11;100.00;99070.75;5005991;28;20230;-63
2023/01/09 09:31:08;;;;;;;24.17;16.30;;;;;;;6.12;100.00;99077.66;5007508;28;20053;-63
2023/01/09 09:33:36;;;;;;;21.77;14.52;;;;;;;6.15;100.00;99062.63;5007708;28;20060;-63
2023/01/09 09:36:03;;;;;;;22.83;15.45;;;;;;;6.18;100.00;99079.88;5006539;28;20049;-62
2023/01/09 09:38:30;;;;;;;21.83;14.90;;;;;;;6.20;100.00;99078.81;5006824;28;20064;-63
2023/01/09 09:46:54;;;;;;;20.65;14.13;;;;;;;6.31;100.00;99075.53;5005807;28;20196;-63
2023/01/09 09:49:27;;;;;;;22.75;15.00;;;;;;;6.33;100.00;99077.09;5004914;28;20056;-61
2023/01/09 09:52:08;;;;;;;22.55;15.82;;;;;;;6.32;100.00;99072.81;4993348;28;20119;-65
2023/01/09 09:54:41;;;;;;;20.77;15.27;;;;;;;6.31;100.00;99081.59;5002563;28;20534;-62
2023/01/09 09:57:16;;;;;;;22.20;13.95;;;;;;;6.31;100.00;99078.13;4990581;28;20056;-63
2023/01/09 09:59:47;;;;;;;26.48;15.45;;;;;;;6.31;100.00;99080.75;5004381;28;20062;-61
2023/01/09 10:02:37;;;;;;;23.80;15.82;;;;;;;6.30;100.00;99089.50;4998993;28;20054;-63
2023/01/09 10:05:12;;;;;;;20.70;14.15;;;;;;;6.36;100.00;99080.44;5007047;28;20152;-63
2023/01/09 10:07:45;;;;;;;22.37;14.77;;;;;;;6.38;100.00;99081.16;5011797;28;20141;-63
2023/01/09 10:10:23;;;;;;;19.30;14.43;;;;;;;6.41;100.00;99084.44;5021360;22;20053;-64
2023/01/09 10:12:56;;;;;;;22.55;15.30;;;;;;;6.43;100.00;99090.38;5005892;28;20209;-64
2023/01/09 10:15:50;;;;;;;23.25;14.90;;;;;;;6.44;100.00;99089.47;5005040;28;20057;-64
2023/01/09 10:19:03;;;;;;;24.67;15.23;;;;;;;6.46;100.00;99084.94;5004963;28;20056;-64
2023/01/09 10:21:35;;;;;;;20.08;13.98;;;;;;;6.47;100.00;99089.22;4989479;28;20054;-64
2023/01/09 10:24:41;;;;;;;21.83;15.02;;;;;;;6.53;100.00;99094.06;5000042;28;20064;-64
2023/01/09 10:27:16;;;;;;;21.52;13.80;;;;;;;6.55;100.00;99094.78;4994858;28;20411;-63
2023/01/09 10:29:53;;;;;;;20.95;14.90;;;;;;;6.56;100.00;99096.47;4984554;28;20066;-62
2023/01/09 10:32:47;;;;;;;19.25;13.23;;;;;;;6.55;100.00;99099.19;4975752;28;20049;-63
2023/01/09 10:35:48;;;;;;;17.00;12.90;;;;;;;6.58;100.00;99101.63;4987136;28;20058;-62
2023/01/09 10:38:25;;;;;;;17.90;13.52;;;;;;;6.61;100.00;99104.00;5002499;28;20165;-64
2023/01/09 10:41:09;;;;;;;17.95;11.27;;;;;;;6.62;100.00;99108.31;5002106;28;20053;-63
2023/01/09 10:43:44;;;;;;;16.60;11.63;;;;;;;6.62;100.00;99110.06;4988930;28;20054;-62
2023/01/09 10:46:17;;;;;;;13.25;10.63;;;;;;;6.64;100.00;99101.19;4988618;28;20053;-62
2023/01/09 10:48:49;;;;;;;15.23;10.88;;;;;;;6.68;100.00;99100.03;5000629;28;20050;-63
2023/01/09 10:51:23;;;;;;;15.18;10.02;;;;;;;6.72;100.00;99109.38;5007673;28;20077;-60
2023/01/09 10:53:53;;;;;;;17.75;10.40;;;;;;;6.72;100.00;99117.22;5003680;28;20062;-64
2023/01/09 10:56:32;;;;;;;13.05;9.98;;;;;;;6.84;100.00;99115.53;5006263;28;20484;-64
2023/01/09 10:59:00;;;;;;;15.43;10.32;;;;;;;6.86;100.00;99118.91;4994123;28;20046;-65
2023/01/09 11:01:37;;;;;;;15.45;9.15;;;;;;;6.90;100.00;99124.75;4970159;28;20054;-64
2023/01/09 11:04:32;;;;;;;14.60;10.15;;;;;;;6.90;100.00;99130.81;5007206;28;20144;-64
2023/01/09 11:07:05;;;;;;;11.98;8.88;;;;;;;6.93;100.00;99135.00;4992752;28;20054;-64
2023/01/09 11:09:57;;;;;;;13.77;8.88;;;;;;;6.92;100.00;99144.63;4994173;28;20057;-64
2023/01/09 11:12:29;;;;;;;14.07;9.93;;;;;;;6.94;100.00;99148.00;4991779;28;20045;-64
2023/01/09 11:15:18;;;;;;;12.57;8.88;;;;;;;7.00;100.00;99136.28;5005810;28;20561;-65
2023/01/09 11:17:46;;;;;;;13.75;9.73;;;;;;;7.03;100.00;99136.91;5001822;28;20046;-63
2023/01/09 11:20:19;;;;;;;12.15;9.55;;;;;;;7.05;100.00;99134.19;5012170;28;20053;-64
2023/01/09 11:22:48;;;;;;;11.68;8.40;;;;;;;7.07;100.00;99135.75;4994213;28;20050;-63
2023/01/09 11:25:18;;;;;;;11.80;9.45;;;;;;;7.10;100.00;99151.22;5000027;28;20065;-65
2023/01/09 11:28:00;;;;;;;11.13;8.60;;;;;;;7.11;100.00;99154.69;5007936;28;20046;-65
2023/01/09 11:30:29;;;;;;;12.60;8.55;;;;;;;7.10;100.00;99153.84;5009233;28;20401;-65
2023/01/09 11:32:57;;;;;;;9.20;7.63;;;;;;;7.09;100.00;99151.34;4994048;28;20303;-65
2023/01/09 11:35:32;;;;;;;11.55;7.65;;;;;;;7.09;100.00;99167.88;5000016;28;20049;-65
2023/01/09 11:38:13;;;;;;;9.18;7.43;;;;;;;7.13;100.00;99178.16;4992525;28;20267;-64
2023/01/09 11:40:52;;;;;;;8.60;7.05;;;;;;;7.10;100.00;99171.31;5013505;28;20112;-64
2023/01/09 11:43:32;;;;;;;12.82;7.38;;;;;;;7.07;100.00;99182.03;4975330;28;20050;-64
2023/01/09 11:46:03;;;;;;;9.82;6.40;;;;;;;7.06;100.00;99172.47;4993354;28;20119;-65
2023/01/09 11:48:53;;;;;;;9.88;5.95;;;;;;;7.10;100.00;99176.56;5009494;28;20056;-64
2023/01/09 11:51:24;;;;;;;7.72;5.63;;;;;;;7.12;100.00;99174.69;4994362;28;20661;-65
2023/01/09 11:54:06;;;;;;;8.52;6.05;;;;;;;7.14;100.00;99177.19;4994734;28;20421;-64
2023/01/09 11:56:35;;;;;;;8.18;5.30;;;;;;;7.17;100.00;99175.22;4996471;28;20913;-64
2023/01/09 11:59:09;;;;;;;7.93;4.80;;;;;;;7.16;100.00;99176.16;4976543;28;20056;-67
2023/01/09 12:02:09;;;;;;;7.28;5.20;;;;;;;7.15;100.00;99191.94;4975304;28;20208;-64
2023/01/09 12:04:41;;;;;;;10.38;5.22;;;;;;;7.18;100.00;99197.00;4990348;28;20058;-64
2023/01/09 12:07:30;;;;;;;10.02;4.90;;;;;;;7.24;100.00;99194.78;5002754;28;20053;-63
2023/01/09 12:10:34;;;;;;;12.20;5.15;;;;;;;7.46;100.00;99203.78;5002802;28;20049;-65
2023/01/09 12:13:10;;;;;;;10.30;5.53;;;;;;;7.67;100.00;99199.69;4989137;28;20064;-64
2023/01/09 12:15:40;;;;;;;7.43;4.25;;;;;;;7.79;100.00;99205.84;5007751;28;20034;-66
2023/01/09 12:18:27;;;;;;;7.28;3.78;;;;;;;7.83;98.25;99209.94;4993355;28;20042;-64
2023/01/09 12:21:06;;;;;;;8.90;4.28;;;;;;;8.23;96.75;99228.91;5007348;28;20042;-63
2023/01/09 12:24:16;;;;;;;9.48;4.53;;;;;;;8.72;94.79;99217.50;5003969;28;20052;-64
2023/01/09 12:26:52;;;;;;;4.03;2.78;;;;;;;9.08;91.78;99218.34;5010500;28;20141;-61
2023/01/09 12:29:32;;;;;;;14.05;3.42;;;;;;;9.37;88.66;99217.00;5008250;28;20049;-65
2023/01/09 12:32:16;;;;;;;6.30;2.83;;;;;;;9.50;86.10;99222.16;5011833;28;20359;-64
2023/01/09 12:34:43;;;;;;;7.95;2.50;;;;;;;9.47;83.09;99204.00;5001586;28;20045;-61
2023/01/09 12:37:22;;;;;;;6.55;2.35;;;;;;;9.57;84.54;99210.19;5007248;28;20054;-63
2023/01/09 12:39:58;;;;;;;12.40;2.60;;;;;;;9.67;81.11;99223.47;4991673;28;20068;-64
2023/01/09 12:42:37;;;;;;;6.40;2.70;;;;;;;9.56;81.30;99226.09;5007045;28;20053;-64
2023/01/09 12:45:23;;;;;;;12.48;2.83;;;;;;;9.62;80.28;99217.72;4972158;28;20050;-63
2023/01/09 12:47:51;;;;;;;7.30;2.42;;;;;;;9.84;77.98;99217.72;5002741;28;20061;-62
2023/01/09 12:50:24;;;;;;;3.80;2.10;;;;;;;10.20;79.54;99220.22;4988160;28;20054;-63
2023/01/09 12:53:30;;;;;;;5.55;2.00;;;;;;;10.65;76.81;99219.16;5003465;28;20504;-63
2023/01/09 12:56:03;;;;;;;5.97;1.93;;;;;;;10.79;71.21;99219.81;5008070;28;20046;-62
2023/01/09 12:58:37;;;;;;;3.45;1.92;;;;;;;10.15;73.03;99229.28;4996339;28;20569;-63
2023/01/09 13:01:10;;;;;;;3.42;1.83;;;;;;;10.04;74.99;99225.84;4983089;28;20041;-62
2023/01/09 13:03:48;;;;;;;7.70;2.10;;;;;;;10.25;74.62;99225.97;4999361;28;20060;-63
2023/01/09 13:06:17;;;;;;;8.02;2.28;;;;;;;10.45;73.76;99219.13;4987244;28;20081;-62
2023/01/09 13:08:48;;;;;;;12.07;2.72;;;;;;;10.61;75.09;99223.00;4987652;28;20406;-62
2023/01/09 13:11:31;;;;;;;6.28;2.30;;;;;;;10.34;74.34;99227.84;4987900;28;20133;-62
2023/01/09 13:14:09;;;;;;;7.00;2.10;;;;;;;10.11;74.91;99230.50;5005201;28;20181;-62
2023/01/09 13:16:45;;;;;;;7.82;2.22;;;;;;;10.15;75.90;99234.56;4993128;28;20049;-61
2023/01/09 13:19:16;;;;;;;3.88;2.17;;;;;;;10.24;73.86;99229.53;5002662;28;20520;-61
2023/01/09 13:21:43;;;;;;;5.70;2.08;;;;;;;10.10;74.31;99236.72;5003825;28;20137;-61
2023/01/09 13:24:19;;;;;;;5.72;2.20;;;;;;;10.18;73.90;99230.88;5005722;28;20061;-62
2023/01/09 13:26:50;;;;;;;6.55;2.05;;;;;;;10.34;72.36;99235.75;4991179;28;20084;-61
2023/01/09 13:29:40;;;;;;;8.13;2.50;;;;;;;10.38;72.88;99231.91;4989859;28;20041;-61
2023/01/09 13:32:10;;;;;;;14.10;2.63;;;;;;;10.46;72.91;99228.69;4989564;28;20432;-61
2023/01/09 13:34:37;;;;;;;6.72;2.15;;;;;;;10.43;72.37;99235.00;5005191;28;20167;-62
2023/01/09 13:37:25;;;;;;;7.75;2.00;;;;;;;10.39;71.90;99236.22;4997269;28;20092;-62
2023/01/09 13:39:59;;;;;;;8.27;2.10;;;;;;;10.41;71.83;99229.06;5004321;28;20677;-63
2023/01/09 13:42:45;;;;;;;7.05;2.42;;;;;;;10.47;71.79;99217.19;5005695;28;20042;-63
2023/01/09 13:45:23;;;;;;;6.70;2.00;;;;;;;10.50;71.16;99216.94;5007814;28;20064;-63
2023/01/09 13:48:07;;;;;;;3.67;1.45;;;;;;;10.64;72.13;99230.66;4992331;28;20190;-62
2023/01/09 13:50:34;;;;;;;4.53;1.83;;;;;;;10.73;71.20;99233.50;4989932;28;20050;-63
2023/01/09 13:53:23;;;;;;;5.97;2.20;;;;;;;10.52;70.61;99243.97;5002479;28;20099;-63
2023/01/09 13:55:56;;;;;;;6.32;1.73;;;;;;;10.38;71.65;99245.06;5008076;28;20058;-63
2023/01/09 13:58:30;;;;;;;10.07;1.80;;;;;;;10.27;72.49;99250.38;5004513;28;20081;-64
2023/01/09 14:01:03;;;;;;;11.10;2.30;;;;;;;10.35;73.68;99261.09;5007507;28;20053;-67
2023/01/09 14:03:36;;;;;;;9.40;2.58;;;;;;;10.38;74.83;99269.59;4991118;28;20049;-61
2023/01/09 14:06:15;;;;;;;5.00;1.48;;;;;;;10.01;72.50;99284.78;4969513;28;20064;-62
2023/01/09 14:08:43;;;;;;;5.38;2.10;;;;;;;9.85;74.47;99281.66;4995180;28;20060;-62
2023/01/09 14:11:17;;;;;;;6.38;2.13;;;;;;;9.79;77.21;99297.91;5005364;28;20617;-63
2023/01/09 14:13:45;;;;;;;8.05;2.20;;;;;;;9.76;76.58;99292.88;5005064;28;20172;-63
2023/01/09 14:16:22;;;;;;;5.93;1.70;;;;;;;9.59;76.31;99295.00;4990141;28;20127;-64
2023/01/09 14:19:00;;;;;;;6.05;2.08;;;;;;;9.38;76.36;99302.72;5002174;28;20076;-63
2023/01/09 14:21:43;;;;;;;5.40;1.85;;;;;;;9.23;77.38;99305.63;4990365;28;20157;-63
2023/01/09 14:24:19;;;;;;;4.82;1.50;;;;;;;9.10;76.07;99311.81;4962247;28;20068;-62
2023/01/09 14:26:53;;;;;;;7.28;2.35;;;;;;;8.93;76.33;99316.63;4997233;28;20060;-63
2023/01/09 14:29:36;;;;;;;11.40;2.10;;;;;;;8.77;77.56;99314.25;5002567;28;20974;-62
2023/01/09 14:32:22;;;;;;;5.03;1.85;;;;;;;8.65;78.30;99321.25;4993232;28;20075;-62
2023/01/09 14:34:55;;;;;;;9.55;2.47;;;;;;;8.53;78.65;99319.50;5000201;28;20056;-62
2023/01/09 14:37:23;;;;;;;4.53;2.10;;;;;;;8.47;79.40;99320.78;4989129;28;20664;-60
2023/01/09 14:39:50;;;;;;;2.65;1.38;;;;;;;8.45;78.83;99325.28;5004676;28;20058;-63
2023/01/09 14:42:21;;;;;;;5.05;1.90;;;;;;;8.41;79.30;99338.72;4987794;28;20060;-63
2023/01/09 16:14:12;;;;;;;11.82;4.25;;;;;;;8.21;85.34;99424.81;5017185;22;20692;-61
2023/01/09 16:30:27;;;;;;;6.35;2.50;;;;;;;8.03;85.65;99426.06;4987108;28;20061;-61
2023/01/09 19:12:30;;;;;;;4.25;2.17;;;;;;;6.87;89.46;99578.34;4980174;28;20049;-63
2023/01/09 19:14:57;;;;;;;4.63;2.35;;;;;;;6.85;90.36;99575.00;4980481;28;20080;-60
2023/01/09 19:30:36;;;;;;;7.93;2.45;;;;;;;6.91;90.49;99592.09;4981453;28;20046;-60
2023/01/09 19:50:18;;;;;;;3.58;1.70;;;;;;;7.06;91.05;99604.25;4984279;28;20044;-60
2023/01/09 20:23:40;;;;;;;3.65;1.20;;;;;;;7.08;90.83;99626.78;4987844;28;20065;-62
2023/01/09 20:39:29;;;;;;;6.18;1.58;;;;;;;7.00;91.76;99639.47;4993369;28;20045;-60
2023/01/09 20:46:16;;;;;;;2.92;1.30;;;;;;;7.00;91.63;99652.56;4988787;28;20124;-60
2023/01/09 20:48:44;;;;;;;4.32;1.50;;;;;;;6.99;91.68;99658.75;4993462;28;20050;-59
2023/01/09 20:51:12;;;;;;;3.97;1.60;;;;;;;6.96;92.15;99660.69;4987147;28;20055;-61
2023/01/09 20:58:22;;;;;;;4.47;1.55;;;;;;;7.01;91.75;99676.97;4984218;28;20048;-61
2023/01/09 21:01:40;;;;;;;3.47;1.70;;;;;;;7.02;92.71;99671.63;4982388;28;20133;-61
